Terminal Aerodrome Forecast
Issued by NWS

Home | Current Version | Previous Version | Text Only | Print | Product List | Glossary On
Versions: 1 2 3 4 5 6 7 8 9 10 11 12 13 14 15 16 17 18 19 20 21 22
552
FTUS46 KPDT 170540
TAFYKM
TAF
KYKM 170540Z 1706/1806 26003KT 4SM HZ SCT022 OVC080
     FM171000 26003KT 4SM BR BKN022 OVC120
     FM171600 29003KT 3SM -SNPL BR BKN025 OVC070
     FM171900 VRB03KT 5SM BR VCSH BKN020 OVC070
     FM180200 20005KT 3SM -FZRASN BKN012 OVC028=

USA.gov is the U.S. government's official web portal to all federal, state and local government web resources and services.